Time;durP1;ratioP1;P1;durP2;ratioP2;P2;SDS_P1;SDS_P2;PMS_P1;PMS_P2;Temp;Humidity;BMP_temperature;BMP_pressure;BME280_temperature;BME280_humidity;BME280_pressure;Samples;Min_cycle;Max_cycle;Signal;HPM_P1;HPM_P2
2021/12/29 00:00:24;;;;;;;;;6.00;5.67;;;;;15.26;54.12;100018.50;6222315;22;45422;-83
2021/12/29 00:02:50;;;;;;;;;6.33;3.33;;;;;15.02;54.46;100029.63;6194626;22;45767;-83
2021/12/29 00:05:16;;;;;;;;;5.33;4.00;;;;;14.97;54.61;100029.72;6196945;22;47203;-83
2021/12/29 00:07:41;;;;;;;;;8.50;5.00;;;;;14.93;54.71;100031.53;6197012;22;45343;-83
2021/12/29 00:10:08;;;;;;;;;4.00;2.00;;;;;15.05;54.50;100034.91;6195029;22;45367;-83
2021/12/29 00:12:40;;;;;;;;;12.67;5.00;;;;;14.99;54.44;100049.31;6195829;22;45268;-83
2021/12/29 00:15:07;;;;;;;;;5.00;2.67;;;;;14.97;54.63;100035.06;6192494;22;47383;-83
2021/12/29 00:17:33;;;;;;;;;3.00;1.33;;;;;14.86;54.45;100035.22;6191610;22;44884;-83
2021/12/29 00:20:00;;;;;;;;;4.00;3.33;;;;;15.11;54.46;100078.59;6192831;22;45368;-84
2021/12/29 00:22:25;;;;;;;;;4.67;4.67;;;;;14.88;54.76;100089.63;6194153;22;45351;-83
2021/12/29 00:24:50;;;;;;;;;7.67;4.33;;;;;14.93;54.76;100095.81;6220062;22;45413;-84
2021/12/29 00:27:16;;;;;;;;;7.67;5.00;;;;;14.86;54.86;100088.75;6192473;22;45268;-83
2021/12/29 00:29:41;;;;;;;;;4.67;4.67;;;;;14.88;54.66;100091.41;6192177;22;45322;-83
2021/12/29 00:33:03;;;;;;;;;9.33;7.67;;;;;15.27;54.23;100094.41;6193087;22;45373;-83
2021/12/29 00:35:29;;;;;;;;;6.67;5.00;;;;;14.89;54.73;100101.22;6194170;22;47079;-83
2021/12/29 00:37:55;;;;;;;;;6.00;5.00;;;;;14.90;55.06;100109.22;6221912;22;45406;-83
2021/12/29 00:40:20;;;;;;;;;5.67;4.67;;;;;14.89;55.14;100103.91;6222920;22;45548;-83
2021/12/29 00:42:45;;;;;;;;;4.67;3.33;;;;;14.88;55.29;100112.84;6224733;22;45321;-83
2021/12/29 00:45:12;;;;;;;;;4.00;4.00;;;;;15.00;55.26;100121.56;6195162;22;46724;-84
2021/12/29 00:47:38;;;;;;;;;8.33;4.00;;;;;14.84;55.49;100103.06;6193176;22;46132;-84
2021/12/29 00:50:12;;;;;;;;;8.00;3.00;;;;;15.06;55.59;100109.00;6193903;22;45345;-83
2021/12/29 00:52:38;;;;;;;;;6.67;4.00;;;;;14.80;55.71;100118.28;6221218;22;45311;-84
2021/12/29 00:55:04;;;;;;;;;14.67;6.00;;;;;14.85;55.86;100111.09;6223049;22;46046;-84
2021/12/29 00:57:29;;;;;;;;;5.00;5.00;;;;;14.82;55.94;100116.47;6222319;22;45421;-84
2021/12/29 00:59:56;;;;;;;;;8.67;2.33;;;;;14.89;55.87;100126.22;6195946;22;45456;-84
2021/12/29 01:02:22;;;;;;;;;8.67;5.67;;;;;14.81;55.88;100106.69;6192939;22;45656;-84
2021/12/29 01:04:47;;;;;;;;;5.00;4.67;;;;;14.86;55.94;100117.31;6192894;22;46935;-84
2021/12/29 01:07:12;;;;;;;;;6.00;6.00;;;;;14.88;56.06;100116.38;6221690;22;45350;-84
2021/12/29 01:09:42;;;;;;;;;6.00;3.00;;;;;15.00;55.78;100108.19;6223485;22;45608;-83
2021/12/29 01:12:09;;;;;;;;;8.67;4.00;;;;;14.94;56.12;100124.34;6222045;22;44795;-84
2021/12/29 01:14:34;;;;;;;;;7.33;4.67;;;;;14.86;56.20;100130.72;6195054;22;47287;-83
2021/12/29 01:17:00;;;;;;;;;9.33;5.00;;;;;14.85;56.22;100123.59;6197178;22;45315;-84
2021/12/29 01:19:29;;;;;;;;;5.00;5.00;;;;;15.05;56.14;100134.91;6225637;22;45419;-83
2021/12/29 01:22:29;;;;;;;;;10.00;8.00;;;;;15.22;55.72;100140.03;6199256;22;45349;-83
2021/12/29 01:24:54;;;;;;;;;8.00;4.67;;;;;14.84;56.39;100133.41;6196112;22;47245;-83
2021/12/29 01:27:19;;;;;;;;;8.00;6.00;;;;;14.85;56.36;100131.63;6194626;22;45737;-83
2021/12/29 01:29:46;;;;;;;;;5.00;5.00;;;;;14.88;56.52;100145.84;6222365;22;45425;-84
2021/12/29 01:32:12;;;;;;;;;5.33;3.00;;;;;14.85;56.55;100137.88;6220142;22;45588;-84
2021/12/29 01:34:38;;;;;;;;;5.00;3.33;;;;;15.00;56.50;100128.72;6194296;22;46764;-84
2021/12/29 01:37:04;;;;;;;;;4.33;4.33;;;;;14.79;56.58;100124.56;6193275;22;45359;-84
2021/12/29 01:39:30;;;;;;;;;5.67;3.33;;;;;14.78;56.79;100122.78;6193223;22;45312;-84
2021/12/29 01:41:58;;;;;;;;;10.33;8.00;;;;;14.94;56.67;100132.38;6193805;22;45292;-84
2021/12/29 01:44:25;;;;;;;;;5.00;2.33;;;;;14.91;56.69;100129.75;6192443;22;46895;-84
2021/12/29 01:46:54;;;;;;;;;10.00;5.00;;;;;15.09;56.66;100135.72;6195695;22;45469;-83
2021/12/29 01:49:20;;;;;;;;;6.50;5.50;;;;;14.89;56.83;100133.34;6196189;22;45342;-84
2021/12/29 01:52:00;;;;;;;;;5.00;3.00;;;;;14.88;56.70;100142.28;6221633;22;45439;-83
2021/12/29 01:54:27;;;;;;;;;12.33;5.33;;;;;14.88;56.57;100143.16;6221099;22;45375;-84
2021/12/29 01:56:56;;;;;;;;;4.67;4.00;;;;;15.07;56.78;100150.94;6193385;22;45276;-84
2021/12/29 01:59:25;;;;;;;;;4.33;4.33;;;;;14.95;56.91;100147.53;6193165;22;45373;-84
2021/12/29 02:01:51;;;;;;;;;8.00;6.00;;;;;14.82;56.94;100137.88;6223063;22;45214;-83
2021/12/29 02:04:17;;;;;;;;;10.00;8.00;;;;;14.99;56.96;100157.31;6195275;22;47090;-83
2021/12/29 02:06:43;;;;;;;;;8.67;5.33;;;;;14.88;56.99;100161.91;6224868;22;45327;-84
2021/12/29 02:10:01;;;;;;;;;9.33;4.67;;;;;15.23;56.28;100155.19;6222515;22;45666;-83
2021/12/29 02:12:27;;;;;;;;;9.67;8.33;;;;;14.91;56.92;100152.97;6195209;22;45529;-83
2021/12/29 02:14:52;;;;;;;;;6.00;6.00;;;;;14.93;57.08;100143.13;6220507;22;45855;-83
2021/12/29 02:17:18;;;;;;;;;5.33;5.33;;;;;14.94;56.93;100147.56;6218602;22;45354;-83
2021/12/29 02:19:45;;;;;;;;;7.33;5.00;;;;;14.93;57.02;100153.84;6220102;22;44882;-83
2021/12/29 02:25:06;;;;;;;;;4.67;4.67;;;;;15.00;56.99;100144.78;6219061;22;45343;-83
2021/12/29 02:27:33;;;;;;;;;8.67;3.67;;;;;15.10;57.03;100148.22;6191572;22;45420;-83
2021/12/29 02:29:59;;;;;;;;;9.00;5.00;;;;;14.93;57.05;100135.97;6192177;22;45347;-83
2021/12/29 02:32:24;;;;;;;;;6.00;4.33;;;;;14.95;57.11;100150.22;6219042;22;45671;-83
2021/12/29 02:34:50;;;;;;;;;6.67;5.33;;;;;15.03;57.11;100152.81;6219188;22;45578;-84
2021/12/29 02:37:19;;;;;;;;;5.00;5.00;;;;;14.98;57.13;100155.50;6219185;22;45315;-83
2021/12/29 02:39:46;;;;;;;;;6.00;5.67;;;;;15.04;57.04;100145.66;6190937;22;45481;-83
2021/12/29 02:42:11;;;;;;;;;10.00;6.33;;;;;15.01;57.20;100149.25;6219697;22;45478;-84
2021/12/29 02:44:41;;;;;;;;;7.67;4.00;;;;;15.04;57.15;100148.31;6218755;22;45271;-83
2021/12/29 02:47:08;;;;;;;;;5.00;2.33;;;;;15.15;57.05;100141.03;6219400;22;45545;-84
2021/12/29 02:49:34;;;;;;;;;5.00;4.33;;;;;15.10;56.97;100141.06;6219538;22;44780;-83
2021/12/29 02:52:00;;;;;;;;;5.33;2.67;;;;;15.10;56.98;100137.53;6190696;22;45783;-83
2021/12/29 02:54:25;;;;;;;;;9.00;5.67;;;;;15.10;56.95;100132.16;6219117;22;45695;-83
2021/12/29 02:56:54;;;;;;;;;6.33;5.00;;;;;15.23;56.88;100132.84;6219057;22;45761;-83
2021/12/29 02:59:22;;;;;;;;;5.33;3.33;;;;;15.26;56.60;100138.19;6220463;22;45626;-83
2021/12/29 03:01:48;;;;;;;;;4.00;3.00;;;;;15.16;56.79;100148.16;6190613;22;45402;-83
2021/12/29 03:04:13;;;;;;;;;6.33;4.33;;;;;15.18;56.96;100140.97;6219243;22;45330;-84
2021/12/29 03:06:39;;;;;;;;;4.33;4.33;;;;;15.22;56.83;100147.19;6221193;22;45837;-83
2021/12/29 03:09:07;;;;;;;;;7.00;5.00;;;;;15.31;56.75;100136.31;6191636;22;45407;-83
2021/12/29 03:11:34;;;;;;;;;7.33;4.33;;;;;15.34;56.63;100131.78;6219089;22;45778;-83
2021/12/29 03:14:00;;;;;;;;;6.33;4.67;;;;;15.24;56.72;100142.69;6219475;22;45172;-83
2021/12/29 03:16:26;;;;;;;;;4.67;2.33;;;;;15.24;56.58;100148.03;6219867;22;45263;-83
2021/12/29 03:18:51;;;;;;;;;8.33;6.00;;;;;15.13;56.97;100134.81;6194019;22;45410;-83
2021/12/29 03:21:17;;;;;;;;;8.00;5.67;;;;;15.13;57.05;100142.84;6195685;22;45773;-83
2021/12/29 03:27:04;;;;;;;;;5.00;4.00;;;;;15.14;57.36;100144.59;6220895;22;45387;-83
2021/12/29 03:29:29;;;;;;;;;7.67;5.33;;;;;15.10;57.04;100134.84;6192718;22;45350;-83
2021/12/29 03:31:55;;;;;;;;;5.33;3.00;;;;;15.18;57.27;100149.88;6218915;22;45382;-83
2021/12/29 03:34:20;;;;;;;;;8.00;3.00;;;;;15.18;57.11;100146.31;6192318;22;47490;-83
2021/12/29 03:36:45;;;;;;;;;4.00;4.00;;;;;15.24;57.20;100148.03;6192677;22;45423;-83
2021/12/29 03:39:11;;;;;;;;;7.50;5.00;;;;;15.21;57.37;100143.63;6192021;22;45390;-83
2021/12/29 03:41:36;;;;;;;;;6.00;4.67;;;;;15.12;57.40;100135.72;6193672;22;45285;-83
2021/12/29 03:44:02;;;;;;;;;3.75;3.00;;;;;15.17;57.40;100139.22;6220851;22;45444;-83
2021/12/29 03:46:28;;;;;;;;;4.33;3.33;;;;;15.12;57.57;100133.91;6220442;22;45897;-83
2021/12/29 03:48:54;;;;;;;;;8.00;3.33;;;;;15.20;57.53;100134.69;6221227;22;45403;-83
2021/12/29 03:51:20;;;;;;;;;4.00;3.00;;;;;15.14;57.35;100134.75;6194191;22;45409;-83
2021/12/29 03:53:52;;;;;;;;;2.25;2.25;;;;;15.16;57.47;100132.06;6193506;22;47277;-83
2021/12/29 03:56:25;;;;;;;;;3.33;3.33;;;;;15.33;56.95;100119.31;6219334;22;46224;-83
2021/12/29 03:58:51;;;;;;;;;8.00;5.00;;;;;15.24;57.40;100115.91;6193240;22;45285;-83
2021/12/29 04:01:18;;;;;;;;;6.33;4.33;;;;;15.07;57.35;100124.16;6194268;22;45257;-82
2021/12/29 04:03:45;;;;;;;;;4.33;4.33;;;;;15.17;57.40;100133.88;6192590;22;46793;-82
2021/12/29 04:06:13;;;;;;;;;6.33;3.33;;;;;15.18;57.31;100119.53;6194512;22;45422;-83
2021/12/29 04:08:39;;;;;;;;;7.00;5.00;;;;;15.06;57.51;100117.03;6221553;22;45334;-82
2021/12/29 04:11:05;;;;;;;;;2.00;2.00;;;;;15.10;57.60;100132.16;6195493;22;45334;-83
2021/12/29 04:13:30;;;;;;;;;3.33;3.33;;;;;15.07;57.65;100125.06;6194089;22;48072;-82
2021/12/29 04:15:56;;;;;;;;;3.00;3.00;;;;;15.14;57.54;100139.25;6220653;22;45174;-82
2021/12/29 04:18:27;;;;;;;;;3.67;3.00;;;;;15.17;57.72;100133.88;6194675;22;45331;-82
2021/12/29 04:21:01;;;;;;;;;5.00;3.00;;;;;15.39;57.50;100129.94;6194459;22;45767;-83
2021/12/29 04:23:32;;;;;;;;;3.00;2.33;;;;;15.36;57.76;100132.66;6193526;22;47074;-83
2021/12/29 04:26:01;;;;;;;;;0.67;0.67;;;;;15.31;57.92;100130.94;6220854;22;45928;-83
2021/12/29 04:28:27;;;;;;;;;2.00;1.67;;;;;15.18;57.89;100128.47;6196770;22;45382;-83
2021/12/29 04:30:58;;;;;;;;;2.00;2.00;;;;;15.45;57.88;100134.34;6194761;22;45341;-83
2021/12/29 04:33:28;;;;;;;;;4.00;2.67;;;;;15.43;58.00;100130.78;6220205;22;46543;-83
2021/12/29 04:35:54;;;;;;;;;2.00;2.00;;;;;15.24;58.32;100134.66;6192560;22;45346;-83
2021/12/29 04:38:21;;;;;;;;;4.00;2.33;;;;;15.26;58.54;100128.34;6166373;22;45352;-83
2021/12/29 04:40:49;;;;;;;;;5.00;3.00;;;;;15.18;58.76;100135.63;6219886;22;45368;-83
2021/12/29 04:43:14;;;;;;;;;2.67;2.67;;;;;15.16;58.93;100132.06;6193491;22;47053;-83
2021/12/29 04:45:41;;;;;;;;;2.67;2.67;;;;;15.25;58.97;100107.84;6193842;22;45346;-83
2021/12/29 04:48:12;;;;;;;;;2.50;2.50;;;;;14.95;59.24;100099.34;6221296;22;45419;-82
2021/12/29 04:50:39;;;;;;;;;3.67;3.00;;;;;14.95;59.59;100111.84;6221749;22;45921;-81
2021/12/29 04:53:07;;;;;;;;;1.50;1.50;;;;;14.96;59.82;100095.75;6222510;22;45453;-82
2021/12/29 04:55:33;;;;;;;;;2.00;2.00;;;;;14.79;60.13;100096.00;6195072;22;45514;-82
2021/12/29 04:58:00;;;;;;;;;7.33;3.33;;;;;14.91;60.23;100105.66;6192781;22;45749;-83
2021/12/29 05:00:28;;;;;;;;;4.50;2.25;;;;;14.92;60.31;100107.41;6219436;22;45350;-83
2021/12/29 05:02:58;;;;;;;;;1.50;1.50;;;;;14.83;60.48;100104.00;6192816;22;46865;-83
2021/12/29 05:10:40;;;;;;;;;2.00;1.00;;;;;14.51;61.44;100084.72;6221294;22;45619;-83
2021/12/29 05:13:06;;;;;;;;;1.00;1.00;;;;;14.55;61.25;100090.94;6193611;22;46871;-82
2021/12/29 05:15:31;;;;;;;;;2.33;2.33;;;;;14.58;61.38;100097.16;6221545;22;45372;-82
2021/12/29 05:21:19;;;;;;;;;2.50;1.00;;;;;14.66;61.55;100088.13;6220406;22;45433;-82
2021/12/29 05:23:44;;;;;;;;;3.00;3.00;;;;;14.63;61.70;100082.84;6222073;22;45394;-82
2021/12/29 05:26:09;;;;;;;;;2.00;2.00;;;;;14.55;62.07;100070.41;6193520;22;45728;-82
2021/12/29 05:28:35;;;;;;;;;5.00;1.00;;;;;14.54;62.24;100076.69;6220008;22;45787;-82
2021/12/29 05:31:01;;;;;;;;;3.33;3.33;;;;;14.47;62.58;100083.00;6191517;22;45489;-82
2021/12/29 05:33:26;;;;;;;;;3.33;3.00;;;;;14.41;62.88;100072.38;6222129;22;45359;-83
2021/12/29 05:35:52;;;;;;;;;3.67;3.33;;;;;14.33;63.00;100071.56;6194323;22;45471;-82
2021/12/29 05:38:17;;;;;;;;;2.67;2.67;;;;;14.32;63.14;100070.69;6195532;22;45390;-82
2021/12/29 05:40:43;;;;;;;;;2.00;2.00;;;;;14.19;63.12;100051.22;6221593;22;45471;-82
2021/12/29 05:43:08;;;;;;;;;3.33;2.00;;;;;14.34;63.31;100070.66;6222851;22;45754;-82
2021/12/29 05:45:34;;;;;;;;;1.00;1.00;;;;;14.30;63.68;100063.56;6194674;22;45351;-82
2021/12/29 05:48:01;;;;;;;;;2.00;1.00;;;;;14.40;63.84;100070.59;6192622;22;45350;-84
2021/12/29 05:50:28;;;;;;;;;2.67;2.67;;;;;14.33;64.28;100058.22;6192610;22;45295;-83
2021/12/29 05:52:55;;;;;;;;;2.00;2.00;;;;;14.31;64.70;100060.00;6191648;22;47329;-83
2021/12/29 05:55:21;;;;;;;;;2.00;1.67;;;;;14.11;65.74;100047.75;6192296;22;45416;-83
2021/12/29 05:57:47;;;;;;;;;2.00;2.00;;;;;14.15;65.10;100046.81;6221645;22;45469;-83
2021/12/29 06:00:16;;;;;;;;;3.00;3.00;;;;;14.20;65.71;100053.00;6221070;22;45599;-82
2021/12/29 06:02:42;;;;;;;;;4.33;3.33;;;;;14.05;65.52;100052.28;6193557;22;46855;-83
2021/12/29 06:05:08;;;;;;;;;2.33;2.33;;;;;13.97;66.41;100047.91;6220746;22;45485;-83
2021/12/29 06:07:34;;;;;;;;;5.67;3.00;;;;;13.97;66.24;100055.94;6195257;22;45901;-83
2021/12/29 06:10:01;;;;;;;;;6.00;3.33;;;;;14.06;66.39;100043.34;6194710;22;45401;-83
2021/12/29 06:12:26;;;;;;;;;4.00;2.00;;;;;13.87;66.60;100043.56;6194282;22;46945;-84
2021/12/29 06:14:52;;;;;;;;;2.00;1.25;;;;;13.92;66.93;100046.22;6193436;22;44782;-84
2021/12/29 06:17:17;;;;;;;;;2.33;2.33;;;;;13.85;66.29;100039.13;6194963;22;45410;-83
2021/12/29 06:19:43;;;;;;;;;3.00;3.00;;;;;13.93;66.52;100047.97;6220789;22;45511;-83
2021/12/29 06:22:10;;;;;;;;;2.00;2.00;;;;;13.94;66.65;100050.63;6219852;22;45531;-83
2021/12/29 06:24:37;;;;;;;;;1.67;1.67;;;;;13.92;65.94;100046.22;6220370;22;45691;-83
2021/12/29 06:27:02;;;;;;;;;4.00;2.00;;;;;13.95;66.45;100047.03;6192166;22;45453;-84
2021/12/29 06:29:28;;;;;;;;;3.67;3.67;;;;;13.92;67.56;100038.19;6219935;22;45370;-84
2021/12/29 06:31:53;;;;;;;;;4.67;3.00;;;;;13.90;67.81;100048.00;6219570;22;45568;-83
2021/12/29 06:34:19;;;;;;;;;2.00;2.00;;;;;13.91;67.94;100060.47;6192848;22;45456;-83
2021/12/29 06:36:44;;;;;;;;;3.67;3.67;;;;;13.90;67.25;100054.22;6219767;22;45839;-83
2021/12/29 06:39:09;;;;;;;;;6.67;6.67;;;;;13.92;67.47;100057.78;6220672;22;45437;-83
2021/12/29 06:41:35;;;;;;;;;5.00;5.00;;;;;13.94;67.27;100055.09;6193955;22;47237;-83
2021/12/29 06:44:01;;;;;;;;;5.00;5.00;;;;;13.97;67.29;100055.94;6192933;22;45447;-83
2021/12/29 06:46:26;;;;;;;;;5.00;4.67;;;;;13.90;66.94;100048.00;6194129;22;45439;-83
2021/12/29 06:48:52;;;;;;;;;8.67;5.00;;;;;13.90;66.78;100048.88;6221669;22;45355;-83
2021/12/29 06:51:17;;;;;;;;;3.67;3.67;;;;;13.94;66.77;100045.28;6195753;22;45467;-83
2021/12/29 06:53:44;;;;;;;;;3.67;3.67;;;;;14.09;66.98;100054.03;6225670;22;44716;-83
2021/12/29 06:56:09;;;;;;;;;5.00;5.00;;;;;14.02;66.81;100053.22;6197245;22;45382;-83
2021/12/29 06:58:34;;;;;;;;;2.67;2.67;;;;;13.98;66.95;100048.81;6194625;22;44890;-83
2021/12/29 07:01:00;;;;;;;;;3.00;3.00;;;;;14.05;66.41;100047.81;6194943;22;47036;-83
2021/12/29 07:03:26;;;;;;;;;3.00;3.00;;;;;14.12;66.32;100054.88;6194466;22;45774;-83
2021/12/29 07:09:13;;;;;;;;;1.75;1.75;;;;;14.06;66.89;100049.63;6221909;22;45298;-83
2021/12/29 07:11:39;;;;;;;;;3.33;2.00;;;;;14.05;67.11;100052.28;6193021;22;47360;-83
2021/12/29 07:14:05;;;;;;;;;2.00;2.00;;;;;14.06;66.84;100062.06;6193418;22;45471;-83
2021/12/29 07:16:32;;;;;;;;;2.33;2.33;;;;;14.12;67.06;100060.25;6194289;22;45296;-83
2021/12/29 07:18:59;;;;;;;;;1.33;1.33;;;;;14.24;67.13;100052.94;6223162;22;45414;-82
2021/12/29 07:21:24;;;;;;;;;0.67;0.67;;;;;14.07;67.37;100050.50;6220874;22;45343;-83
2021/12/29 07:23:51;;;;;;;;;2.00;2.00;;;;;14.01;67.26;100052.31;6193693;22;45212;-83
2021/12/29 07:26:17;;;;;;;;;2.67;1.67;;;;;14.04;67.29;100055.84;6220515;22;45274;-83
2021/12/29 07:28:42;;;;;;;;;2.67;2.67;;;;;13.94;67.02;100049.75;6192929;22;45371;-83
2021/12/29 07:31:09;;;;;;;;;2.00;2.00;;;;;14.18;68.05;100054.81;6219328;22;45352;-83
2021/12/29 07:33:35;;;;;;;;;3.33;3.00;;;;;14.01;68.01;100040.75;6192281;22;45383;-83
2021/12/29 07:36:00;;;;;;;;;3.00;3.00;;;;;14.03;67.90;100052.31;6192235;22;45333;-83
2021/12/29 07:38:26;;;;;;;;;5.00;3.00;;;;;13.97;67.85;100049.69;6219802;22;45351;-83
2021/12/29 07:40:51;;;;;;;;;4.67;4.00;;;;;14.04;68.08;100056.75;6220548;22;45366;-83
2021/12/29 07:43:18;;;;;;;;;4.67;4.67;;;;;14.04;67.68;100062.13;6194836;22;45391;-83
2021/12/29 07:45:45;;;;;;;;;4.00;4.00;;;;;14.21;67.67;100065.47;6221397;22;45505;-83
2021/12/29 07:48:10;;;;;;;;;4.33;4.33;;;;;14.03;67.42;100059.44;6194144;22;45319;-83
2021/12/29 07:50:39;;;;;;;;;4.33;4.00;;;;;14.47;67.65;100072.28;6196542;22;47458;-83
2021/12/29 07:53:06;;;;;;;;;4.00;4.00;;;;;14.38;67.24;100080.41;6222617;22;45355;-82
2021/12/29 07:55:32;;;;;;;;;5.67;4.33;;;;;14.20;67.79;100068.19;6193416;22;45383;-83
2021/12/29 07:57:57;;;;;;;;;2.67;2.67;;;;;14.26;67.32;100072.53;6221133;22;45281;-83
2021/12/29 08:00:24;;;;;;;;;4.33;4.00;;;;;14.35;67.93;100067.09;6193310;22;46909;-83
2021/12/29 08:02:51;;;;;;;;;3.00;3.00;;;;;14.36;67.56;100071.53;6192303;22;45326;-85
2021/12/29 08:05:17;;;;;;;;;4.00;4.00;;;;;14.31;68.04;100076.06;6196866;22;45506;-85
2021/12/29 08:07:46;;;;;;;;;5.33;4.00;;;;;14.48;67.60;100075.84;6200257;22;45494;-85
2021/12/29 08:10:12;;;;;;;;;3.00;3.00;;;;;14.32;67.21;100084.06;6203630;22;47450;-85
2021/12/29 08:12:38;;;;;;;;;8.00;4.33;;;;;14.35;67.67;100080.47;6196889;22;45511;-85
2021/12/29 08:15:04;;;;;;;;;3.00;3.00;;;;;14.46;67.62;100086.59;6197148;22;45382;-84
2021/12/29 08:18:02;;;;;;;;;3.50;3.50;;;;;14.77;67.20;100097.81;6197033;22;45477;-85
2021/12/29 08:20:28;;;;;;;;;5.25;5.00;;;;;14.45;67.66;100100.84;6195147;22;45370;-85
2021/12/29 08:22:53;;;;;;;;;3.00;3.00;;;;;14.46;67.50;100105.31;6195259;22;45549;-86
2021/12/29 08:25:20;;;;;;;;;4.00;3.75;;;;;14.54;67.66;100105.19;6195000;22;45255;-86
2021/12/29 08:27:45;;;;;;;;;5.33;5.00;;;;;14.36;67.98;100091.16;6194568;22;45338;-86
2021/12/29 08:30:11;;;;;;;;;5.00;4.00;;;;;14.50;68.23;100112.41;6221767;22;45399;-85
2021/12/29 08:32:37;;;;;;;;;3.67;2.33;;;;;14.38;67.92;100100.06;6220939;22;45387;-82
2021/12/29 08:35:04;;;;;;;;;6.33;6.33;;;;;14.55;68.28;100110.53;6225317;22;44857;-82
2021/12/29 08:37:29;;;;;;;;;5.00;5.00;;;;;14.46;68.31;100102.66;6197640;22;45499;-82
2021/12/29 08:39:56;;;;;;;;;4.00;4.00;;;;;14.71;67.58;100118.41;6223448;22;45486;-83
2021/12/29 08:42:23;;;;;;;;;5.67;5.67;;;;;14.54;68.17;100114.13;6224520;22;45458;-82
2021/12/29 08:44:49;;;;;;;;;6.00;4.67;;;;;14.49;67.90;100110.63;6197307;22;44920;-83
2021/12/29 08:47:14;;;;;;;;;6.33;6.33;;;;;14.53;67.92;100115.03;6198386;22;45292;-82
2021/12/29 08:49:40;;;;;;;;;5.67;5.67;;;;;14.62;67.83;100107.81;6223390;22;45362;-82
2021/12/29 08:52:06;;;;;;;;;5.00;4.67;;;;;14.62;67.88;100105.13;6223123;22;45359;-82
2021/12/29 08:54:31;;;;;;;;;8.00;8.00;;;;;14.65;67.64;100107.78;6196474;22;44714;-82
2021/12/29 09:00:19;;;;;;;;;8.00;7.33;;;;;14.74;68.14;100091.59;6222941;22;45694;-81
2021/12/29 09:02:46;;;;;;;;;10.33;8.00;;;;;14.79;67.97;100096.00;6194592;22;46016;-82
2021/12/29 09:05:16;;;;;;;;;8.00;8.00;;;;;15.05;68.05;100101.88;6196893;22;45326;-83
2021/12/29 09:07:41;;;;;;;;;5.00;5.00;;;;;15.02;68.52;100109.97;6200149;22;45453;-82
2021/12/29 09:10:08;;;;;;;;;5.33;5.00;;;;;15.18;68.35;100096.31;6225761;22;45291;-82
2021/12/29 09:12:34;;;;;;;;;10.00;9.33;;;;;15.17;67.91;100096.38;6221640;22;45342;-82
2021/12/29 09:14:59;;;;;;;;;8.00;6.33;;;;;15.26;67.84;100093.53;6195638;22;45355;-83
2021/12/29 09:17:25;;;;;;;;;5.33;4.33;;;;;15.46;67.59;100092.34;6224258;22;45271;-83
2021/12/29 09:19:51;;;;;;;;;2.00;2.00;;;;;15.51;67.35;100091.34;6195459;22;46883;-83
2021/12/29 09:22:17;;;;;;;;;4.00;4.00;;;;;15.59;67.20;100077.78;6196693;22;45612;-83
2021/12/29 09:24:43;;;;;;;;;2.33;2.00;;;;;15.65;67.12;100082.19;6224355;22;45088;-83
2021/12/29 09:27:10;;;;;;;;;2.33;2.33;;;;;15.79;67.06;100086.44;6196221;22;45395;-83
2021/12/29 09:29:35;;;;;;;;;2.33;2.33;;;;;15.78;67.16;100090.00;6196489;22;47062;-83
2021/12/29 09:32:02;;;;;;;;;1.00;1.00;;;;;16.04;66.87;100094.03;6197158;22;45478;-83
2021/12/29 09:34:28;;;;;;;;;9.00;9.00;;;;;16.03;67.07;100096.72;6223795;22;45522;-82
2021/12/29 09:37:00;;;;;;;;;2.00;2.00;;;;;16.05;67.15;100076.13;6197665;22;45391;-82
2021/12/29 09:39:26;;;;;;;;;0.00;0.00;;;;;16.11;67.02;100071.53;6196447;22;47670;-82
2021/12/29 09:41:52;;;;;;;;;0.25;0.25;;;;;16.30;67.24;100081.88;6224559;22;45307;-83
2021/12/29 09:44:18;;;;;;;;;1.50;1.00;;;;;16.44;66.83;100084.28;6226210;22;45325;-82
2021/12/29 09:46:44;;;;;;;;;3.00;2.00;;;;;16.51;66.68;100081.47;6196233;22;45413;-83
2021/12/29 09:49:09;;;;;;;;;0.75;0.75;;;;;16.56;67.02;100074.19;6223880;22;45565;-83
2021/12/29 09:51:35;;;;;;;;;1.25;0.75;;;;;16.73;66.57;100076.50;6224638;22;45346;-82
2021/12/29 09:54:01;;;;;;;;;4.67;4.00;;;;;16.74;66.68;100077.38;6199074;22;45765;-84
2021/12/29 09:56:33;;;;;;;;;38.00;31.00;;;;;17.08;66.00;100079.34;6197661;22;45463;-83
2021/12/29 09:58:59;;;;;;;;;1.50;1.50;;;;;16.85;66.69;100070.03;6195717;22;46646;-84
2021/12/29 10:01:25;;;;;;;;;16.67;15.33;;;;;16.94;66.53;100068.91;6196096;22;45616;-83
2021/12/29 10:07:39;;;;;;;;;4.25;2.75;;;;;17.48;65.78;100081.97;6219279;22;45395;-84
2021/12/29 10:10:33;;;;;;;;;14.67;12.67;;;;;17.51;65.58;100073.84;6200000;22;45552;-82
2021/12/29 10:12:59;;;;;;;;;1.00;1.00;;;;;17.29;66.12;100073.47;6220242;22;45405;-83
2021/12/29 10:15:31;;;;;;;;;3.00;3.00;;;;;17.54;66.14;100078.25;6197556;22;45347;-83
2021/12/29 10:21:22;;;;;;;;;1.00;1.00;;;;;17.54;65.60;100102.44;6223115;22;45776;-81
2021/12/29 10:23:51;;;;;;;;;1.00;1.00;;;;;17.53;65.88;100077.38;6222245;22;45346;-82
2021/12/29 10:26:29;;;;;;;;;3.00;2.00;;;;;17.59;65.55;100085.28;6223692;22;44864;-83
2021/12/29 10:29:00;;;;;;;;;1.00;1.00;;;;;17.58;66.41;100096.94;6225003;22;45392;-83
2021/12/29 10:31:29;;;;;;;;;2.00;0.50;;;;;17.67;66.53;100103.00;6198583;22;45354;-83
2021/12/29 10:34:04;;;;;;;;;0.50;0.50;;;;;17.76;65.93;100090.22;6226772;22;44847;-83
2021/12/29 10:36:43;;;;;;;;;0.00;0.00;;;;;17.72;66.68;100088.53;6170242;22;44844;-84
2021/12/29 10:39:12;;;;;;;;;0.00;0.00;;;;;17.77;66.20;100110.81;6221872;22;45334;-83
2021/12/29 10:41:46;;;;;;;;;0.50;0.50;;;;;17.91;66.14;100085.38;6196248;22;46683;-84
2021/12/29 10:44:24;;;;;;;;;5.33;5.33;;;;;17.86;65.87;100095.41;6195288;22;45298;-83
2021/12/29 10:46:49;;;;;;;;;0.00;0.00;;;;;17.70;66.39;100113.69;6196137;22;45399;-83
2021/12/29 10:49:15;;;;;;;;;0.00;0.00;;;;;17.78;66.52;100109.00;6195244;22;45284;-83
2021/12/29 10:51:45;;;;;;;;;0.50;0.00;;;;;17.93;66.05;100110.44;6196618;22;46557;-83
2021/12/29 10:54:19;;;;;;;;;0.00;0.00;;;;;17.78;66.53;100109.88;6195774;22;45714;-83
2021/12/29 10:57:09;;;;;;;;;0.50;0.50;;;;;18.09;66.62;100111.78;6225233;22;45370;-83
2021/12/29 10:59:41;;;;;;;;;0.00;0.00;;;;;17.95;66.34;100113.97;6186704;22;45408;-83
2021/12/29 11:02:10;;;;;;;;;0.00;0.00;;;;;17.85;66.79;100107.06;6195512;22;46893;-83
2021/12/29 11:04:36;;;;;;;;;0.00;0.00;;;;;17.78;66.92;100107.19;6193878;22;45327;-83
2021/12/29 11:10:24;;;;;;;;;0.00;0.00;;;;;17.85;66.93;100113.31;6222956;22;45363;-83
2021/12/29 11:12:54;;;;;;;;;1.00;0.00;;;;;18.01;66.29;100108.44;6195224;22;47185;-83
2021/12/29 11:15:23;;;;;;;;;0.00;0.00;;;;;18.21;66.76;100115.09;6196742;22;45458;-82
2021/12/29 11:17:52;;;;;;;;;0.00;0.00;;;;;18.17;66.38;100112.47;6223032;22;45239;-83
2021/12/29 11:20:24;;;;;;;;;1.00;1.00;;;;;18.51;66.30;100122.31;6226427;22;45340;-84
2021/12/29 11:22:51;;;;;;;;;0.00;0.00;;;;;18.40;66.23;100127.13;6196750;22;47042;-84
2021/12/29 11:25:30;;;;;;;;;1.00;1.00;;;;;18.63;65.44;100129.16;6196712;22;45395;-83
2021/12/29 11:27:55;;;;;;;;;0.00;0.00;;;;;18.36;65.91;100120.94;6195961;22;45308;-83
2021/12/29 11:30:21;;;;;;;;;0.00;0.00;;;;;18.34;66.40;100117.41;6197733;22;45488;-84
2021/12/29 11:32:48;;;;;;;;;0.00;0.00;;;;;18.44;66.28;100138.66;6198388;22;46013;-83
2021/12/29 11:35:22;;;;;;;;;1.75;0.00;;;;;18.68;66.06;100139.78;6195094;22;45697;-84
2021/12/29 11:37:51;;;;;;;;;1.00;1.00;;;;;18.57;65.83;100124.81;6222516;22;45625;-83
2021/12/29 11:40:19;;;;;;;;;0.75;0.75;;;;;18.62;66.27;100146.22;6224498;22;45367;-83
2021/12/29 11:42:47;;;;;;;;;4.00;3.00;;;;;18.48;66.43;100145.72;6224136;22;46338;-83
2021/12/29 11:45:13;;;;;;;;;0.50;0.50;;;;;18.52;66.54;100136.63;6195949;22;45480;-84
2021/12/29 11:47:39;;;;;;;;;1.50;0.00;;;;;18.59;65.82;100133.72;6199397;22;45514;-84
2021/12/29 11:50:08;;;;;;;;;0.00;0.00;;;;;18.75;66.08;100136.00;6197232;22;44807;-84
2021/12/29 11:52:58;;;;;;;;;1.00;1.00;;;;;19.04;65.08;100142.34;6194720;22;47132;-84
2021/12/29 11:55:32;;;;;;;;;0.25;0.25;;;;;18.89;65.81;100131.13;6197007;22;45481;-84
2021/12/29 11:58:12;;;;;;;;;1.50;0.75;;;;;19.07;65.20;100142.28;6198925;22;45251;-83